sensor_id;sensor_type;location;lat;lon;timestamp;temperature;humidity
23540;DHT22;11947;50.810;4.394;2022-10-19T00:01:05;12.10;99.90
23540;DHT22;11947;50.810;4.394;2022-10-19T00:03:38;12.10;99.90
23540;DHT22;11947;50.810;4.394;2022-10-19T00:06:14;12.10;99.90
23540;DHT22;11947;50.810;4.394;2022-10-19T00:08:41;12.00;99.90
23540;DHT22;11947;50.810;4.394;2022-10-19T00:11:07;12.00;99.90
23540;DHT22;11947;50.810;4.394;2022-10-19T00:13:42;12.00;99.90
23540;DHT22;11947;50.810;4.394;2022-10-19T00:16:13;12.20;99.90
23540;DHT22;11947;50.810;4.394;2022-10-19T00:18:41;12.20;99.90
23540;DHT22;11947;50.810;4.394;2022-10-19T00:21:16;12.10;99.90
23540;DHT22;11947;50.810;4.394;2022-10-19T00:23:42;12.10;99.90
23540;DHT22;11947;50.810;4.394;2022-10-19T00:26:08;12.10;99.90
23540;DHT22;11947;50.810;4.394;2022-10-19T00:28:34;12.10;99.90
23540;DHT22;11947;50.810;4.394;2022-10-19T00:31:14;12.20;99.90
23540;DHT22;11947;50.810;4.394;2022-10-19T00:33:47;12.30;99.90
23540;DHT22;11947;50.810;4.394;2022-10-19T00:36:21;12.30;99.90
23540;DHT22;11947;50.810;4.394;2022-10-19T00:38:49;12.20;99.90
23540;DHT22;11947;50.810;4.394;2022-10-19T00:41:22;12.20;99.90
23540;DHT22;11947;50.810;4.394;2022-10-19T00:49:27;12.00;99.90
23540;DHT22;11947;50.810;4.394;2022-10-19T00:52:00;11.90;99.90
23540;DHT22;11947;50.810;4.394;2022-10-19T00:59:39;11.90;99.90
23540;DHT22;11947;50.810;4.394;2022-10-19T01:02:07;11.70;99.90
23540;DHT22;11947;50.810;4.394;2022-10-19T01:04:35;11.70;99.90
23540;DHT22;11947;50.810;4.394;2022-10-19T01:07:03;11.80;99.90
23540;DHT22;11947;50.810;4.394;2022-10-19T01:17:41;11.90;99.90
23540;DHT22;11947;50.810;4.394;2022-10-19T01:22:47;11.90;99.90
23540;DHT22;11947;50.810;4.394;2022-10-19T01:25:47;11.90;99.90
23540;DHT22;11947;50.810;4.394;2022-10-19T01:36:19;11.70;99.90
23540;DHT22;11947;50.810;4.394;2022-10-19T01:38:57;11.70;99.90
23540;DHT22;11947;50.810;4.394;2022-10-19T01:41:48;11.70;99.90
23540;DHT22;11947;50.810;4.394;2022-10-19T01:44:24;11.60;99.90
23540;DHT22;11947;50.810;4.394;2022-10-19T01:46:59;11.50;99.90
23540;DHT22;11947;50.810;4.394;2022-10-19T01:49:33;11.40;99.90
23540;DHT22;11947;50.810;4.394;2022-10-19T01:52:02;11.40;99.90
23540;DHT22;11947;50.810;4.394;2022-10-19T01:54:33;11.50;99.90
23540;DHT22;11947;50.810;4.394;2022-10-19T01:57:05;11.40;99.90
23540;DHT22;11947;50.810;4.394;2022-10-19T01:59:35;11.40;99.90
23540;DHT22;11947;50.810;4.394;2022-10-19T02:02:03;11.40;99.90
23540;DHT22;11947;50.810;4.394;2022-10-19T02:04:32;11.50;99.90
23540;DHT22;11947;50.810;4.394;2022-10-19T02:06:59;11.60;99.90
23540;DHT22;11947;50.810;4.394;2022-10-19T02:09:26;11.60;99.90
23540;DHT22;11947;50.810;4.394;2022-10-19T02:11:57;11.50;99.90
23540;DHT22;11947;50.810;4.394;2022-10-19T02:14:30;11.50;99.90
23540;DHT22;11947;50.810;4.394;2022-10-19T02:17:21;11.40;99.90
23540;DHT22;11947;50.810;4.394;2022-10-19T02:19:45;11.40;99.90
23540;DHT22;11947;50.810;4.394;2022-10-19T02:22:11;11.20;99.90
23540;DHT22;11947;50.810;4.394;2022-10-19T02:24:37;11.20;99.90
23540;DHT22;11947;50.810;4.394;2022-10-19T02:27:04;11.30;99.90
23540;DHT22;11947;50.810;4.394;2022-10-19T02:29:33;11.30;99.90
23540;DHT22;11947;50.810;4.394;2022-10-19T02:32:01;11.30;99.90
23540;DHT22;11947;50.810;4.394;2022-10-19T02:34:27;11.20;99.90
23540;DHT22;11947;50.810;4.394;2022-10-19T02:36:54;11.20;99.90
23540;DHT22;11947;50.810;4.394;2022-10-19T02:39:20;11.20;99.90
23540;DHT22;11947;50.810;4.394;2022-10-19T02:44:42;11.10;99.90
23540;DHT22;11947;50.810;4.394;2022-10-19T02:47:14;11.00;99.90
23540;DHT22;11947;50.810;4.394;2022-10-19T02:49:42;11.00;99.90
23540;DHT22;11947;50.810;4.394;2022-10-19T02:52:10;10.90;99.90
23540;DHT22;11947;50.810;4.394;2022-10-19T02:54:37;11.00;99.90
23540;DHT22;11947;50.810;4.394;2022-10-19T02:57:15;11.00;99.90
23540;DHT22;11947;50.810;4.394;2022-10-19T02:59:40;11.10;99.90
23540;DHT22;11947;50.810;4.394;2022-10-19T03:02:06;11.10;99.90
23540;DHT22;11947;50.810;4.394;2022-10-19T03:04:32;11.20;99.90
23540;DHT22;11947;50.810;4.394;2022-10-19T03:06:58;11.10;99.90
23540;DHT22;11947;50.810;4.394;2022-10-19T03:09:23;11.10;99.90
23540;DHT22;11947;50.810;4.394;2022-10-19T03:11:49;11.10;99.90
23540;DHT22;11947;50.810;4.394;2022-10-19T03:14:14;11.20;99.90
23540;DHT22;11947;50.810;4.394;2022-10-19T03:16:40;11.20;99.90
23540;DHT22;11947;50.810;4.394;2022-10-19T03:19:06;11.20;99.90
23540;DHT22;11947;50.810;4.394;2022-10-19T03:21:34;11.20;99.90
23540;DHT22;11947;50.810;4.394;2022-10-19T03:24:00;11.10;99.90
23540;DHT22;11947;50.810;4.394;2022-10-19T03:26:26;11.10;99.90
23540;DHT22;11947;50.810;4.394;2022-10-19T03:28:52;11.00;99.90
23540;DHT22;11947;50.810;4.394;2022-10-19T03:31:17;11.00;99.90
23540;DHT22;11947;50.810;4.394;2022-10-19T03:33:43;11.00;99.90
23540;DHT22;11947;50.810;4.394;2022-10-19T03:38:45;10.90;99.90
23540;DHT22;11947;50.810;4.394;2022-10-19T03:41:11;10.90;99.90
23540;DHT22;11947;50.810;4.394;2022-10-19T03:43:37;10.90;99.90
23540;DHT22;11947;50.810;4.394;2022-10-19T03:46:02;10.90;99.90
23540;DHT22;11947;50.810;4.394;2022-10-19T03:48:29;10.80;99.90
23540;DHT22;11947;50.810;4.394;2022-10-19T03:51:04;10.80;99.90
23540;DHT22;11947;50.810;4.394;2022-10-19T03:53:30;10.80;99.90
23540;DHT22;11947;50.810;4.394;2022-10-19T03:56:08;10.80;99.90
23540;DHT22;11947;50.810;4.394;2022-10-19T03:58:35;10.80;99.90
23540;DHT22;11947;50.810;4.394;2022-10-19T04:01:04;10.80;99.90
23540;DHT22;11947;50.810;4.394;2022-10-19T04:03:30;10.80;99.90
23540;DHT22;11947;50.810;4.394;2022-10-19T04:06:08;10.80;99.90
23540;DHT22;11947;50.810;4.394;2022-10-19T04:08:34;10.70;99.90
23540;DHT22;11947;50.810;4.394;2022-10-19T04:11:01;10.80;99.90
23540;DHT22;11947;50.810;4.394;2022-10-19T04:13:28;10.80;99.90
23540;DHT22;11947;50.810;4.394;2022-10-19T04:15:54;10.80;99.90
23540;DHT22;11947;50.810;4.394;2022-10-19T04:18:20;10.70;99.90
23540;DHT22;11947;50.810;4.394;2022-10-19T04:20:45;10.80;99.90
23540;DHT22;11947;50.810;4.394;2022-10-19T04:23:11;10.80;99.90
23540;DHT22;11947;50.810;4.394;2022-10-19T04:25:37;10.80;99.90
23540;DHT22;11947;50.810;4.394;2022-10-19T04:28:02;10.90;99.90
23540;DHT22;11947;50.810;4.394;2022-10-19T04:30:28;10.90;99.90
23540;DHT22;11947;50.810;4.394;2022-10-19T04:32:54;11.00;99.90
23540;DHT22;11947;50.810;4.394;2022-10-19T04:35:22;10.90;99.90
23540;DHT22;11947;50.810;4.394;2022-10-19T04:37:48;10.90;99.90
23540;DHT22;11947;50.810;4.394;2022-10-19T04:40:14;10.90;99.90
23540;DHT22;11947;50.810;4.394;2022-10-19T04:42:43;10.70;99.90
23540;DHT22;11947;50.810;4.394;2022-10-19T04:45:09;10.50;99.90
23540;DHT22;11947;50.810;4.394;2022-10-19T04:47:35;10.50;99.90
23540;DHT22;11947;50.810;4.394;2022-10-19T04:50:00;10.50;99.90
23540;DHT22;11947;50.810;4.394;2022-10-19T04:52:26;10.60;99.90
23540;DHT22;11947;50.810;4.394;2022-10-19T04:54:52;10.60;99.90
23540;DHT22;11947;50.810;4.394;2022-10-19T04:57:17;10.50;99.90
23540;DHT22;11947;50.810;4.394;2022-10-19T04:59:43;10.40;99.90
23540;DHT22;11947;50.810;4.394;2022-10-19T05:02:08;10.50;99.90
23540;DHT22;11947;50.810;4.394;2022-10-19T05:04:34;10.50;99.90
23540;DHT22;11947;50.810;4.394;2022-10-19T05:07:00;10.50;99.90
23540;DHT22;11947;50.810;4.394;2022-10-19T05:09:25;10.50;99.90
23540;DHT22;11947;50.810;4.394;2022-10-19T05:11:51;10.40;99.90
23540;DHT22;11947;50.810;4.394;2022-10-19T05:14:17;10.40;99.90
23540;DHT22;11947;50.810;4.394;2022-10-19T05:16:42;10.30;99.90
23540;DHT22;11947;50.810;4.394;2022-10-19T05:19:12;10.20;99.90
23540;DHT22;11947;50.810;4.394;2022-10-19T05:21:38;10.10;99.90
23540;DHT22;11947;50.810;4.394;2022-10-19T05:24:04;10.20;99.90
23540;DHT22;11947;50.810;4.394;2022-10-19T05:26:29;10.20;99.90
23540;DHT22;11947;50.810;4.394;2022-10-19T05:28:58;10.10;99.90
23540;DHT22;11947;50.810;4.394;2022-10-19T05:31:28;10.20;99.90
23540;DHT22;11947;50.810;4.394;2022-10-19T05:33:54;10.10;99.90
23540;DHT22;11947;50.810;4.394;2022-10-19T05:36:25;10.10;99.90
23540;DHT22;11947;50.810;4.394;2022-10-19T05:38:52;10.10;99.90
23540;DHT22;11947;50.810;4.394;2022-10-19T05:41:19;10.10;99.90
23540;DHT22;11947;50.810;4.394;2022-10-19T05:43:46;10.10;99.90
23540;DHT22;11947;50.810;4.394;2022-10-19T05:46:14;10.20;99.90
23540;DHT22;11947;50.810;4.394;2022-10-19T05:48:42;10.10;99.90
23540;DHT22;11947;50.810;4.394;2022-10-19T05:51:10;10.10;99.90
23540;DHT22;11947;50.810;4.394;2022-10-19T05:53:36;10.20;99.90
23540;DHT22;11947;50.810;4.394;2022-10-19T05:56:17;10.20;99.90
23540;DHT22;11947;50.810;4.394;2022-10-19T05:58:43;10.20;99.90
23540;DHT22;11947;50.810;4.394;2022-10-19T06:01:09;10.30;99.90
23540;DHT22;11947;50.810;4.394;2022-10-19T06:03:35;10.20;99.90
23540;DHT22;11947;50.810;4.394;2022-10-19T06:06:03;10.20;99.90
23540;DHT22;11947;50.810;4.394;2022-10-19T06:08:29;10.20;99.90
23540;DHT22;11947;50.810;4.394;2022-10-19T06:11:10;10.20;99.90
23540;DHT22;11947;50.810;4.394;2022-10-19T06:13:40;10.10;99.90
23540;DHT22;11947;50.810;4.394;2022-10-19T06:16:06;10.10;99.90
23540;DHT22;11947;50.810;4.394;2022-10-19T06:18:32;10.10;99.90
23540;DHT22;11947;50.810;4.394;2022-10-19T06:21:07;10.10;99.90
23540;DHT22;11947;50.810;4.394;2022-10-19T06:23:33;10.20;99.90
23540;DHT22;11947;50.810;4.394;2022-10-19T06:26:02;10.20;99.90
23540;DHT22;11947;50.810;4.394;2022-10-19T06:28:28;10.30;99.90
23540;DHT22;11947;50.810;4.394;2022-10-19T06:30:57;10.20;99.90
23540;DHT22;11947;50.810;4.394;2022-10-19T06:33:22;10.30;99.90
23540;DHT22;11947;50.810;4.394;2022-10-19T06:35:48;10.30;99.90
23540;DHT22;11947;50.810;4.394;2022-10-19T06:38:14;10.40;99.90
23540;DHT22;11947;50.810;4.394;2022-10-19T06:40:39;10.20;99.90
23540;DHT22;11947;50.810;4.394;2022-10-19T06:43:05;10.10;99.90
23540;DHT22;11947;50.810;4.394;2022-10-19T06:45:30;10.20;99.90
23540;DHT22;11947;50.810;4.394;2022-10-19T06:47:58;10.20;99.90
23540;DHT22;11947;50.810;4.394;2022-10-19T06:50:23;10.00;99.90
23540;DHT22;11947;50.810;4.394;2022-10-19T06:52:49;10.10;99.90
23540;DHT22;11947;50.810;4.394;2022-10-19T06:55:15;10.10;99.90
23540;DHT22;11947;50.810;4.394;2022-10-19T06:57:42;10.20;99.90
23540;DHT22;11947;50.810;4.394;2022-10-19T07:00:09;10.20;99.90
23540;DHT22;11947;50.810;4.394;2022-10-19T07:02:34;10.20;99.90
23540;DHT22;11947;50.810;4.394;2022-10-19T07:05:00;10.20;99.90
23540;DHT22;11947;50.810;4.394;2022-10-19T07:07:26;10.10;99.90
23540;DHT22;11947;50.810;4.394;2022-10-19T07:09:51;10.20;99.90
23540;DHT22;11947;50.810;4.394;2022-10-19T07:12:18;10.30;99.90
23540;DHT22;11947;50.810;4.394;2022-10-19T07:14:43;10.30;99.90
23540;DHT22;11947;50.810;4.394;2022-10-19T07:17:10;10.30;99.90
23540;DHT22;11947;50.810;4.394;2022-10-19T07:19:36;10.40;99.90
23540;DHT22;11947;50.810;4.394;2022-10-19T07:22:02;10.40;99.90
23540;DHT22;11947;50.810;4.394;2022-10-19T07:24:28;10.40;99.90
23540;DHT22;11947;50.810;4.394;2022-10-19T07:26:53;10.60;99.90
23540;DHT22;11947;50.810;4.394;2022-10-19T07:29:19;10.60;99.90
23540;DHT22;11947;50.810;4.394;2022-10-19T07:31:45;10.70;99.90
23540;DHT22;11947;50.810;4.394;2022-10-19T07:34:11;10.80;99.90
23540;DHT22;11947;50.810;4.394;2022-10-19T07:36:38;10.90;99.90
23540;DHT22;11947;50.810;4.394;2022-10-19T07:39:05;11.00;99.90
23540;DHT22;11947;50.810;4.394;2022-10-19T07:41:32;11.10;99.90
23540;DHT22;11947;50.810;4.394;2022-10-19T07:43:59;11.20;99.90
23540;DHT22;11947;50.810;4.394;2022-10-19T07:46:26;11.30;99.90
23540;DHT22;11947;50.810;4.394;2022-10-19T07:48:54;11.30;99.90
23540;DHT22;11947;50.810;4.394;2022-10-19T07:51:20;11.40;99.90
23540;DHT22;11947;50.810;4.394;2022-10-19T07:53:47;11.60;99.90
23540;DHT22;11947;50.810;4.394;2022-10-19T07:56:21;11.60;99.90
23540;DHT22;11947;50.810;4.394;2022-10-19T07:58:48;11.70;99.90
23540;DHT22;11947;50.810;4.394;2022-10-19T08:01:19;11.60;99.90
23540;DHT22;11947;50.810;4.394;2022-10-19T08:03:45;11.70;99.90
23540;DHT22;11947;50.810;4.394;2022-10-19T08:06:13;11.70;99.90
23540;DHT22;11947;50.810;4.394;2022-10-19T08:08:41;11.80;99.90
23540;DHT22;11947;50.810;4.394;2022-10-19T08:13:37;11.90;99.90
23540;DHT22;11947;50.810;4.394;2022-10-19T08:16:04;12.00;99.90
23540;DHT22;11947;50.810;4.394;2022-10-19T08:26:24;12.30;99.90
23540;DHT22;11947;50.810;4.394;2022-10-19T08:34:01;12.40;99.90
23540;DHT22;11947;50.810;4.394;2022-10-19T08:36:26;12.40;99.90
23540;DHT22;11947;50.810;4.394;2022-10-19T08:38:55;12.50;99.90
23540;DHT22;11947;50.810;4.394;2022-10-19T08:50:26;13.20;99.90
23540;DHT22;11947;50.810;4.394;2022-10-19T08:53:07;13.30;99.90
23540;DHT22;11947;50.810;4.394;2022-10-19T09:01:36;13.60;99.90
23540;DHT22;11947;50.810;4.394;2022-10-19T09:10:00;13.80;99.90
23540;DHT22;11947;50.810;4.394;2022-10-19T09:12:57;13.80;99.90
23540;DHT22;11947;50.810;4.394;2022-10-19T09:15:37;13.90;99.90
23540;DHT22;11947;50.810;4.394;2022-10-19T09:18:31;13.90;99.90
23540;DHT22;11947;50.810;4.394;2022-10-19T09:21:20;14.10;99.90
23540;DHT22;11947;50.810;4.394;2022-10-19T09:24:39;14.20;99.90
23540;DHT22;11947;50.810;4.394;2022-10-19T09:27:00;14.40;99.90
23540;DHT22;11947;50.810;4.394;2022-10-19T09:32:10;14.40;99.90
23540;DHT22;11947;50.810;4.394;2022-10-19T09:34:42;14.40;99.90
23540;DHT22;11947;50.810;4.394;2022-10-19T09:37:16;14.60;99.90
23540;DHT22;11947;50.810;4.394;2022-10-19T09:42:26;14.90;99.90
23540;DHT22;11947;50.810;4.394;2022-10-19T09:45:18;14.90;99.90
23540;DHT22;11947;50.810;4.394;2022-10-19T09:47:47;15.00;99.90
23540;DHT22;11947;50.810;4.394;2022-10-19T09:50:34;15.00;99.90
23540;DHT22;11947;50.810;4.394;2022-10-19T09:53:04;15.20;99.90
23540;DHT22;11947;50.810;4.394;2022-10-19T09:55:38;15.30;99.90
23540;DHT22;11947;50.810;4.394;2022-10-19T09:58:34;15.30;99.90
23540;DHT22;11947;50.810;4.394;2022-10-19T10:01:01;15.40;99.90
23540;DHT22;11947;50.810;4.394;2022-10-19T10:06:23;15.70;99.90
23540;DHT22;11947;50.810;4.394;2022-10-19T10:08:54;15.80;99.90
23540;DHT22;11947;50.810;4.394;2022-10-19T10:11:52;15.90;99.90
23540;DHT22;11947;50.810;4.394;2022-10-19T10:14:29;16.00;99.90
23540;DHT22;11947;50.810;4.394;2022-10-19T10:17:01;16.20;99.90
23540;DHT22;11947;50.810;4.394;2022-10-19T10:19:29;16.30;99.90
23540;DHT22;11947;50.810;4.394;2022-10-19T10:21:57;16.30;99.90
23540;DHT22;11947;50.810;4.394;2022-10-19T10:24:28;16.30;99.90
23540;DHT22;11947;50.810;4.394;2022-10-19T10:26:56;16.40;99.90
23540;DHT22;11947;50.810;4.394;2022-10-19T10:29:27;16.50;99.90
23540;DHT22;11947;50.810;4.394;2022-10-19T10:32:18;16.60;99.90
23540;DHT22;11947;50.810;4.394;2022-10-19T10:35:24;16.80;99.90
23540;DHT22;11947;50.810;4.394;2022-10-19T10:37:51;16.80;99.90
23540;DHT22;11947;50.810;4.394;2022-10-19T10:55:55;18.10;99.90
23540;DHT22;11947;50.810;4.394;2022-10-19T10:58:33;18.30;99.90
23540;DHT22;11947;50.810;4.394;2022-10-19T11:06:56;18.60;99.90
23540;DHT22;11947;50.810;4.394;2022-10-19T11:09:30;19.00;99.90
23540;DHT22;11947;50.810;4.394;2022-10-19T11:12:02;19.50;99.90
23540;DHT22;11947;50.810;4.394;2022-10-19T11:22:32;22.20;99.90
23540;DHT22;11947;50.810;4.394;2022-10-19T11:30:19;23.50;99.90
23540;DHT22;11947;50.810;4.394;2022-10-19T11:41:38;22.70;99.90
23540;DHT22;11947;50.810;4.394;2022-10-19T11:55:33;21.90;99.90
23540;DHT22;11947;50.810;4.394;2022-10-19T11:58:23;21.30;99.90
23540;DHT22;11947;50.810;4.394;2022-10-19T12:12:40;22.10;99.90
23540;DHT22;11947;50.810;4.394;2022-10-19T12:17:47;22.00;99.90
23540;DHT22;11947;50.810;4.394;2022-10-19T12:20:24;22.00;99.90
23540;DHT22;11947;50.810;4.394;2022-10-19T12:22:51;22.50;99.90
23540;DHT22;11947;50.810;4.394;2022-10-19T12:27:54;23.30;99.90
23540;DHT22;11947;50.810;4.394;2022-10-19T13:01:14;33.20;93.50
23540;DHT22;11947;50.810;4.394;2022-10-19T13:03:42;32.40;94.20
23540;DHT22;11947;50.810;4.394;2022-10-19T13:11:18;31.90;93.80
23540;DHT22;11947;50.810;4.394;2022-10-19T13:19:04;32.20;93.40
23540;DHT22;11947;50.810;4.394;2022-10-19T13:32:41;25.30;99.90
23540;DHT22;11947;50.810;4.394;2022-10-19T13:35:39;23.80;99.90
23540;DHT22;11947;50.810;4.394;2022-10-19T13:40:40;21.90;99.90
23540;DHT22;11947;50.810;4.394;2022-10-19T13:46:52;20.60;99.90
23540;DHT22;11947;50.810;4.394;2022-10-19T13:51:35;20.00;99.90
23540;DHT22;11947;50.810;4.394;2022-10-19T14:00:18;19.50;99.90
23540;DHT22;11947;50.810;4.394;2022-10-19T14:11:56;19.00;99.90
23540;DHT22;11947;50.810;4.394;2022-10-19T14:22:28;18.50;99.90
23540;DHT22;11947;50.810;4.394;2022-10-19T14:27:45;18.40;99.90
23540;DHT22;11947;50.810;4.394;2022-10-19T14:30:33;18.30;99.90
23540;DHT22;11947;50.810;4.394;2022-10-19T14:38:20;18.20;99.90
23540;DHT22;11947;50.810;4.394;2022-10-19T14:41:32;18.30;99.90
23540;DHT22;11947;50.810;4.394;2022-10-19T14:44:18;18.30;99.90
23540;DHT22;11947;50.810;4.394;2022-10-19T14:46:47;18.10;99.90
23540;DHT22;11947;50.810;4.394;2022-10-19T14:49:13;17.90;99.90
23540;DHT22;11947;50.810;4.394;2022-10-19T14:51:57;17.90;99.90
23540;DHT22;11947;50.810;4.394;2022-10-19T14:54:38;17.80;99.90
23540;DHT22;11947;50.810;4.394;2022-10-19T14:57:17;18.00;99.90
23540;DHT22;11947;50.810;4.394;2022-10-19T15:02:56;17.80;99.90
23540;DHT22;11947;50.810;4.394;2022-10-19T15:05:28;17.70;99.90
23540;DHT22;11947;50.810;4.394;2022-10-19T15:07:56;17.50;99.90
23540;DHT22;11947;50.810;4.394;2022-10-19T15:13:06;17.40;99.90
23540;DHT22;11947;50.810;4.394;2022-10-19T15:15:58;17.20;99.90
23540;DHT22;11947;50.810;4.394;2022-10-19T15:45:37;16.60;99.90
23540;DHT22;11947;50.810;4.394;2022-10-19T15:50:45;16.40;99.90
23540;DHT22;11947;50.810;4.394;2022-10-19T15:53:30;16.40;99.90
23540;DHT22;11947;50.810;4.394;2022-10-19T15:55:57;16.40;99.90
23540;DHT22;11947;50.810;4.394;2022-10-19T15:58:31;16.30;99.90
23540;DHT22;11947;50.810;4.394;2022-10-19T16:00:57;16.30;99.90
23540;DHT22;11947;50.810;4.394;2022-10-19T16:03:26;16.30;99.90
23540;DHT22;11947;50.810;4.394;2022-10-19T16:06:11;16.20;99.90
23540;DHT22;11947;50.810;4.394;2022-10-19T16:08:37;16.10;99.90
23540;DHT22;11947;50.810;4.394;2022-10-19T16:13:42;16.00;99.90
23540;DHT22;11947;50.810;4.394;2022-10-19T16:19:31;16.10;99.90
23540;DHT22;11947;50.810;4.394;2022-10-19T16:25:11;15.90;99.90
23540;DHT22;11947;50.810;4.394;2022-10-19T16:27:42;15.90;99.90
23540;DHT22;11947;50.810;4.394;2022-10-19T16:30:09;15.80;99.90
23540;DHT22;11947;50.810;4.394;2022-10-19T16:40:51;15.30;99.90
23540;DHT22;11947;50.810;4.394;2022-10-19T16:47:06;15.20;99.90
23540;DHT22;11947;50.810;4.394;2022-10-19T16:49:31;15.10;99.90
23540;DHT22;11947;50.810;4.394;2022-10-19T16:51:58;15.10;99.90
23540;DHT22;11947;50.810;4.394;2022-10-19T16:54:35;15.10;99.90
23540;DHT22;11947;50.810;4.394;2022-10-19T17:10:51;14.60;99.90
23540;DHT22;11947;50.810;4.394;2022-10-19T17:13:19;14.50;99.90
23540;DHT22;11947;50.810;4.394;2022-10-19T17:18:28;14.60;99.90
23540;DHT22;11947;50.810;4.394;2022-10-19T17:21:06;14.50;99.90
23540;DHT22;11947;50.810;4.394;2022-10-19T17:23:31;14.40;99.90
23540;DHT22;11947;50.810;4.394;2022-10-19T17:26:00;14.40;99.90
23540;DHT22;11947;50.810;4.394;2022-10-19T17:33:46;14.50;99.90
23540;DHT22;11947;50.810;4.394;2022-10-19T17:36:36;14.40;99.90
23540;DHT22;11947;50.810;4.394;2022-10-19T17:39:20;14.50;99.90
23540;DHT22;11947;50.810;4.394;2022-10-19T17:41:50;14.30;99.90
23540;DHT22;11947;50.810;4.394;2022-10-19T17:44:24;14.20;99.90
23540;DHT22;11947;50.810;4.394;2022-10-19T17:46:49;14.30;99.90
23540;DHT22;11947;50.810;4.394;2022-10-19T17:51:52;14.20;99.90
23540;DHT22;11947;50.810;4.394;2022-10-19T17:54:23;14.20;99.90
23540;DHT22;11947;50.810;4.394;2022-10-19T17:56:52;14.20;99.90
23540;DHT22;11947;50.810;4.394;2022-10-19T17:59:26;14.00;99.90
23540;DHT22;11947;50.810;4.394;2022-10-19T18:01:54;14.00;99.90
23540;DHT22;11947;50.810;4.394;2022-10-19T18:04:23;14.10;99.90
23540;DHT22;11947;50.810;4.394;2022-10-19T18:07:04;14.10;99.90
23540;DHT22;11947;50.810;4.394;2022-10-19T18:09:38;14.00;99.90
23540;DHT22;11947;50.810;4.394;2022-10-19T18:12:09;13.90;99.90
23540;DHT22;11947;50.810;4.394;2022-10-19T18:14:38;14.20;99.90
23540;DHT22;11947;50.810;4.394;2022-10-19T18:17:17;14.00;99.90
23540;DHT22;11947;50.810;4.394;2022-10-19T18:19:57;14.00;99.90
23540;DHT22;11947;50.810;4.394;2022-10-19T18:22:23;14.00;99.90
23540;DHT22;11947;50.810;4.394;2022-10-19T18:29:54;13.90;99.90
23540;DHT22;11947;50.810;4.394;2022-10-19T18:40:07;13.70;99.90
23540;DHT22;11947;50.810;4.394;2022-10-19T18:42:37;13.70;99.90
23540;DHT22;11947;50.810;4.394;2022-10-19T18:45:04;13.70;99.90
23540;DHT22;11947;50.810;4.394;2022-10-19T18:47:30;13.70;99.90
23540;DHT22;11947;50.810;4.394;2022-10-19T18:49:55;13.90;99.90
23540;DHT22;11947;50.810;4.394;2022-10-19T18:52:28;13.90;99.90
23540;DHT22;11947;50.810;4.394;2022-10-19T18:54:54;13.70;99.90
23540;DHT22;11947;50.810;4.394;2022-10-19T18:57:23;13.70;99.90
23540;DHT22;11947;50.810;4.394;2022-10-19T18:59:51;13.70;99.90
23540;DHT22;11947;50.810;4.394;2022-10-19T19:02:19;13.50;99.90
23540;DHT22;11947;50.810;4.394;2022-10-19T19:04:47;13.50;99.90
23540;DHT22;11947;50.810;4.394;2022-10-19T19:07:13;13.50;99.90
23540;DHT22;11947;50.810;4.394;2022-10-19T19:09:41;13.50;99.90
23540;DHT22;11947;50.810;4.394;2022-10-19T19:12:08;13.60;99.90
23540;DHT22;11947;50.810;4.394;2022-10-19T19:14:54;13.50;99.90
23540;DHT22;11947;50.810;4.394;2022-10-19T19:17:20;13.50;99.90
23540;DHT22;11947;50.810;4.394;2022-10-19T19:19:45;13.40;99.90
23540;DHT22;11947;50.810;4.394;2022-10-19T19:22:11;13.50;99.90
23540;DHT22;11947;50.810;4.394;2022-10-19T19:24:37;13.30;99.90
23540;DHT22;11947;50.810;4.394;2022-10-19T19:37:30;13.30;99.90
23540;DHT22;11947;50.810;4.394;2022-10-19T19:55:38;13.30;99.90
23540;DHT22;11947;50.810;4.394;2022-10-19T20:06:08;13.20;99.90
23540;DHT22;11947;50.810;4.394;2022-10-19T20:21:55;13.10;99.90
23540;DHT22;11947;50.810;4.394;2022-10-19T20:24:23;13.30;99.90
23540;DHT22;11947;50.810;4.394;2022-10-19T20:27:01;13.30;99.90
23540;DHT22;11947;50.810;4.394;2022-10-19T20:29:55;13.30;99.90
23540;DHT22;11947;50.810;4.394;2022-10-19T20:32:29;13.10;99.90
23540;DHT22;11947;50.810;4.394;2022-10-19T20:44:16;13.10;99.90
23540;DHT22;11947;50.810;4.394;2022-10-19T20:46:51;13.10;99.90
23540;DHT22;11947;50.810;4.394;2022-10-19T21:01:02;13.10;99.90
23540;DHT22;11947;50.810;4.394;2022-10-19T21:03:55;13.10;99.90
23540;DHT22;11947;50.810;4.394;2022-10-19T21:06:48;13.10;99.90
23540;DHT22;11947;50.810;4.394;2022-10-19T21:09:22;13.10;99.90
23540;DHT22;11947;50.810;4.394;2022-10-19T21:11:51;13.20;99.90
23540;DHT22;11947;50.810;4.394;2022-10-19T21:14:26;13.10;99.90
23540;DHT22;11947;50.810;4.394;2022-10-19T21:16:58;13.00;99.90
23540;DHT22;11947;50.810;4.394;2022-10-19T21:19:58;13.10;99.90
23540;DHT22;11947;50.810;4.394;2022-10-19T21:22:44;13.00;99.90
23540;DHT22;11947;50.810;4.394;2022-10-19T21:25:15;13.10;99.90
23540;DHT22;11947;50.810;4.394;2022-10-19T21:27:50;13.10;99.90
23540;DHT22;11947;50.810;4.394;2022-10-19T21:30:49;13.00;99.90
23540;DHT22;11947;50.810;4.394;2022-10-19T21:33:25;13.00;99.90
23540;DHT22;11947;50.810;4.394;2022-10-19T21:36:35;12.90;99.90
23540;DHT22;11947;50.810;4.394;2022-10-19T21:39:01;13.00;99.90
23540;DHT22;11947;50.810;4.394;2022-10-19T21:41:36;13.00;99.90
23540;DHT22;11947;50.810;4.394;2022-10-19T21:44:24;13.10;99.90
23540;DHT22;11947;50.810;4.394;2022-10-19T21:47:08;13.00;99.90
23540;DHT22;11947;50.810;4.394;2022-10-19T21:49:55;13.10;99.90
23540;DHT22;11947;50.810;4.394;2022-10-19T21:54:52;12.90;99.90
23540;DHT22;11947;50.810;4.394;2022-10-19T21:57:18;12.90;99.90
23540;DHT22;11947;50.810;4.394;2022-10-19T21:59:52;12.90;99.90
23540;DHT22;11947;50.810;4.394;2022-10-19T22:02:18;12.90;99.90
23540;DHT22;11947;50.810;4.394;2022-10-19T22:04:43;12.90;99.90
23540;DHT22;11947;50.810;4.394;2022-10-19T22:07:09;12.90;99.90
23540;DHT22;11947;50.810;4.394;2022-10-19T22:10:00;12.90;99.90
23540;DHT22;11947;50.810;4.394;2022-10-19T22:12:29;12.90;99.90
23540;DHT22;11947;50.810;4.394;2022-10-19T22:14:57;12.90;99.90
23540;DHT22;11947;50.810;4.394;2022-10-19T22:17:23;13.00;99.90
23540;DHT22;11947;50.810;4.394;2022-10-19T22:19:49;13.00;99.90
23540;DHT22;11947;50.810;4.394;2022-10-19T22:22:18;12.90;99.90
23540;DHT22;11947;50.810;4.394;2022-10-19T22:25:01;13.00;99.90
23540;DHT22;11947;50.810;4.394;2022-10-19T22:27:31;13.00;99.90
23540;DHT22;11947;50.810;4.394;2022-10-19T22:30:16;13.00;99.90
23540;DHT22;11947;50.810;4.394;2022-10-19T22:32:43;13.00;99.90
23540;DHT22;11947;50.810;4.394;2022-10-19T22:38:27;12.90;99.90
23540;DHT22;11947;50.810;4.394;2022-10-19T22:40:53;12.90;99.90
23540;DHT22;11947;50.810;4.394;2022-10-19T22:43:18;12.80;99.90
23540;DHT22;11947;50.810;4.394;2022-10-19T22:45:52;12.80;99.90